Time;durP1;ratioP1;P1;durP2;ratioP2;P2;SDS_P1;SDS_P2;PMS_P1;PMS_P2;Temp;Humidity;BMP_temperature;BMP_pressure;BME280_temperature;BME280_humidity;BME280_pressure;Samples;Min_cycle;Max_cycle;Signal;HPM_P1;HPM_P2
2022/05/17 00:05:17;;;;;;;3.83;2.50;;;;;;;;;;5046934;28;20109;-56
2022/05/17 00:07:52;;;;;;;3.97;2.80;;;;;;;;;;5047034;28;20101;-57
2022/05/17 00:10:38;;;;;;;3.80;2.78;;;;;;;;;;5078205;28;20088;-57
2022/05/17 00:13:32;;;;;;;;;;;;;;;;;;;;;
2022/05/17 00:16:26;;;;;;;8.85;2.70;;;;;;;;;;5027896;28;20097;-57
2022/05/17 00:19:20;;;;;;;;;;;;;;;;;;;;;
2022/05/17 00:22:02;;;;;;;3.78;2.15;;;;;;;;;;5045844;28;20163;-57
2022/05/17 00:27:26;;;;;;;;;;;;;;;;;;;;;
2022/05/17 00:30:14;;;;;;;3.77;2.50;;;;;;;;;;5036099;28;20076;-57
2022/05/17 00:32:55;;;;;;;5.55;3.55;;;;;;;;;;5045800;28;20291;-57
2022/05/17 00:36:11;;;;;;;4.82;3.10;;;;;;;;;;5046187;28;20040;-57
2022/05/17 00:39:03;;;;;;;7.18;2.63;;;;;;;;;;5023848;28;20030;-57
2022/05/17 00:44:45;;;;;;;4.72;3.00;;;;;;;;;;5004509;28;20523;-56
2022/05/17 00:47:36;;;;;;;3.30;2.25;;;;;;;;;;5003375;28;20032;-56
2022/05/17 00:50:16;;;;;;;3.63;2.95;;;;;;;;;;5004559;28;20109;-57
2022/05/17 00:56:01;;;;;;;4.75;2.60;;;;;;;;;;5065533;28;20036;-57
2022/05/17 00:59:07;;;;;;;2.75;2.25;;;;;;;;;;5043936;28;20072;-57
2022/05/17 01:01:55;;;;;;;5.47;2.28;;;;;;;;;;5066137;28;20025;-54
2022/05/17 01:04:47;;;;;;;3.40;2.83;;;;;;;;;;5066225;28;20363;-57
2022/05/17 01:08:05;;;;;;;4.88;2.80;;;;;;;;;;5058896;28;20092;-56
2022/05/17 01:11:00;;;;;;;2.95;2.55;;;;;;;;;;5064745;28;20048;-57
2022/05/17 01:22:44;;;;;;;8.32;3.03;;;;;;;;;;5060074;28;20037;-57
2022/05/17 01:25:33;;;;;;;3.85;2.30;;;;;;;;;;5065915;28;20025;-57
2022/05/17 01:28:27;;;;;;;3.80;2.40;;;;;;;;;;5065627;28;20420;-56
2022/05/17 01:34:06;;;;;;;5.50;2.38;;;;;;;;;;5055950;28;20067;-57
2022/05/17 01:39:44;;;;;;;4.30;2.92;;;;;;;;;;5063852;28;20029;-55
2022/05/17 01:42:20;;;;;;;3.55;2.55;;;;;;;;;;5066272;28;20033;-56
2022/05/17 01:45:08;;;;;;;3.28;2.38;;;;;;;;;;5047978;28;20033;-56
2022/05/17 01:47:49;;;;;;;4.55;2.50;;;;;;;;;;5065386;28;20071;-56
2022/05/17 01:53:56;;;;;;;5.80;2.53;;;;;;;;;;5025919;28;20481;-57
2022/05/17 01:57:00;;;;;;;4.00;2.85;;;;;;;;;;4964950;29;20019;-57
2022/05/17 01:59:42;;;;;;;5.85;2.78;;;;;;;;;;4955621;28;20052;-57
2022/05/17 02:02:18;;;;;;;3.38;2.15;;;;;;;;;;5025019;28;20455;-54
2022/05/17 02:05:09;;;;;;;4.80;3.08;;;;;;;;;;5040219;28;20065;-57
2022/05/17 02:08:26;;;;;;;4.10;2.75;;;;;;;;;;5026221;28;20040;-57
2022/05/17 02:17:22;;;;;;;3.80;2.50;;;;;;;;;;4927414;29;20039;-57
2022/05/17 02:20:14;;;;;;;4.80;3.10;;;;;;;;;;4946040;29;20047;-56
2022/05/17 02:23:06;;;;;;;3.65;2.75;;;;;;;;;;5010288;28;20057;-56
2022/05/17 02:25:45;;;;;;;4.15;2.67;;;;;;;;;;5007836;28;20034;-57
2022/05/17 02:28:44;;;;;;;3.40;2.60;;;;;;;;;;5026606;28;20044;-56
2022/05/17 02:31:11;;;;;;;9.63;2.92;;;;;;;;;;5016957;28;20045;-56
2022/05/17 02:33:47;;;;;;;4.70;2.60;;;;;;;;;;5025719;28;20452;-57
2022/05/17 02:39:30;;;;;;;3.60;2.60;;;;;;;;;;5019797;28;20038;-57
2022/05/17 02:42:47;;;;;;;3.35;2.97;;;;;;;;;;5025756;28;20026;-56
2022/05/17 02:45:23;;;;;;;4.72;2.85;;;;;;;;;;5021717;28;20124;-53
2022/05/17 02:48:01;;;;;;;4.07;3.17;;;;;;;;;;5025245;28;20475;-55
2022/05/17 02:53:32;;;;;;;3.95;3.17;;;;;;;;;;5059007;28;20035;-56
2022/05/17 02:59:40;;;;;;;4.47;3.03;;;;;;;;;;5003307;28;20042;-54
2022/05/17 03:02:18;;;;;;;3.83;3.08;;;;;;;;;;5004109;28;20456;-57
2022/05/17 03:08:02;;;;;;;5.00;2.97;;;;;;;;;;5004092;28;20029;-55
2022/05/17 03:10:34;;;;;;;8.80;3.30;;;;;;;;;;5001645;28;20036;-54
2022/05/17 03:13:19;;;;;;;4.00;3.15;;;;;;;;;;5026812;28;20044;-57
2022/05/17 03:15:57;;;;;;;4.82;3.65;;;;;;;;;;5042861;28;20021;-57
2022/05/17 03:18:50;;;;;;;4.97;3.25;;;;;;;;;;5064952;28;20032;-55
2022/05/17 03:21:44;;;;;;;4.18;3.00;;;;;;;;;;5041849;28;20047;-55
2022/05/17 03:24:26;;;;;;;4.93;3.03;;;;;;;;;;5042316;28;20086;-57
2022/05/17 03:30:00;;;;;;;6.22;4.28;;;;;;;;;;5042879;28;20618;-57
2022/05/17 03:35:50;;;;;;;5.45;3.50;;;;;;;;;;4944963;29;20035;-56
2022/05/17 03:38:27;;;;;;;4.95;3.42;;;;;;;;;;4957675;29;20405;-57
2022/05/17 03:41:28;;;;;;;4.70;3.92;;;;;;;;;;4957200;29;20031;-57
2022/05/17 03:47:03;;;;;;;7.53;4.32;;;;;;;;;;4955086;28;20140;-56
2022/05/17 03:52:58;;;;;;;5.07;3.58;;;;;;;;;;4984591;28;20038;-56
2022/05/17 03:56:00;;;;;;;5.00;3.80;;;;;;;;;;5015795;28;20037;-57
2022/05/17 03:58:57;;;;;;;5.55;3.22;;;;;;;;;;5015886;28;20033;-55
2022/05/17 04:01:42;;;;;;;4.63;3.40;;;;;;;;;;5017079;28;20065;-57
2022/05/17 04:04:25;;;;;;;5.18;3.95;;;;;;;;;;5015524;28;20038;-56
2022/05/17 04:19:02;;;;;;;5.57;3.63;;;;;;;;;;5003379;28;20361;-57
2022/05/17 04:21:44;;;;;;;7.63;3.88;;;;;;;;;;4999296;28;20040;-54
2022/05/17 04:24:45;;;;;;;6.10;4.00;;;;;;;;;;5018195;28;20440;-54
2022/05/17 04:30:09;;;;;;;4.10;2.88;;;;;;;;;;4976133;28;20093;-56
2022/05/17 04:33:01;;;;;;;6.85;3.72;;;;;;;;;;4944397;28;20520;-55
2022/05/17 04:35:54;;;;;;;4.82;3.40;;;;;;;;;;4998206;28;20050;-56
2022/05/17 04:41:43;;;;;;;9.05;4.03;;;;;;;;;;5016425;28;20038;-55
2022/05/17 04:47:26;;;;;;;;;;;;;;;;;;;;;
2022/05/17 04:49:55;;;;;;;10.30;4.32;;;;;;;;;;5020579;28;20038;-54
2022/05/17 04:52:52;;;;;;;4.63;3.25;;;;;;;;;;5052126;28;20493;-57
2022/05/17 04:55:31;;;;;;;8.77;3.78;;;;;;;;;;5019644;28;20057;-57
2022/05/17 04:58:00;;;;;;;5.53;3.38;;;;;;;;;;5036827;28;20029;-56
2022/05/17 05:00:46;;;;;;;4.55;3.58;;;;;;;;;;5017322;28;20069;-57
2022/05/17 05:03:40;;;;;;;7.72;3.60;;;;;;;;;;5037247;28;20033;-56
2022/05/17 05:06:30;;;;;;;4.38;2.35;;;;;;;;;;5018527;28;20033;-57
2022/05/17 05:12:37;;;;;;;;;;;;;;;;;;;;;
2022/05/17 05:17:55;;;;;;;3.42;2.40;;;;;;;;;;5036077;28;19951;-55
2022/05/17 05:20:53;;;;;;;5.65;2.92;;;;;;;;;;5036578;28;20025;-54
2022/05/17 05:23:34;;;;;;;;;;;;;;;;;;;;;
2022/05/17 05:26:06;;;;;;;9.50;5.65;;;;;;;;;;5029092;28;20098;-55
2022/05/17 05:28:52;;;;;;;;;;;;;;;;;;;;;
2022/05/17 05:31:27;;;;;;;3.17;2.65;;;;;;;;;;5045576;28;20467;-54
2022/05/17 05:39:59;;;;;;;6.38;2.97;;;;;;;;;;5044857;28;20037;-56
2022/05/17 05:42:53;;;;;;;5.18;3.50;;;;;;;;;;5045118;28;20056;-56
2022/05/17 05:45:31;;;;;;;4.18;3.25;;;;;;;;;;5003903;28;20070;-54
2022/05/17 05:53:50;;;;;;;5.40;3.10;;;;;;;;;;5029768;28;20033;-56
2022/05/17 05:56:38;;;;;;;9.20;3.45;;;;;;;;;;5040530;28;20034;-56
2022/05/17 06:02:35;;;;;;;6.00;2.72;;;;;;;;;;4958342;29;20167;-56
2022/05/17 06:05:42;;;;;;;4.35;3.40;;;;;;;;;;5003845;28;20034;-57
2022/05/17 06:08:47;;;;;;;4.20;3.20;;;;;;;;;;4963674;29;20062;-56
2022/05/17 06:11:32;;;;;;;4.28;3.80;;;;;;;;;;4955752;28;20065;-56
2022/05/17 06:13:58;;;;;;;5.05;3.95;;;;;;;;;;5003304;28;20031;-55
2022/05/17 06:16:38;;;;;;;5.47;3.78;;;;;;;;;;5002771;28;20022;-56
2022/05/17 06:19:30;;;;;;;;;;;;;;;;;;;;;
2022/05/17 06:22:38;;;;;;;8.93;4.70;;;;;;;;;;5000462;28;20117;-56
2022/05/17 06:25:22;;;;;;;6.97;4.18;;;;;;;;;;4970053;28;20140;-56
2022/05/17 06:28:13;;;;;;;5.18;4.20;;;;;;;;;;5002165;28;20033;-54
2022/05/17 06:31:13;;;;;;;5.47;3.67;;;;;;;;;;5003009;28;20038;-56
2022/05/17 06:33:51;;;;;;;4.97;3.85;;;;;;;;;;5002203;28;20042;-56
2022/05/17 06:36:42;;;;;;;10.18;3.85;;;;;;;;;;5020435;28;20025;-55
2022/05/17 06:39:15;;;;;;;6.78;3.90;;;;;;;;;;5044639;28;20029;-53
2022/05/17 06:41:51;;;;;;;4.88;3.03;;;;;;;;;;5044554;28;20045;-55
2022/05/17 06:44:24;;;;;;;4.80;3.65;;;;;;;;;;5044121;28;20505;-57
2022/05/17 06:47:05;;;;;;;7.25;3.70;;;;;;;;;;5043459;28;20053;-57
2022/05/17 06:53:10;;;;;;;;;;;;;;;;;;;;;
2022/05/17 06:55:49;;;;;;;10.10;4.75;;;;;;;;;;5002056;28;20123;-56
2022/05/17 06:58:53;;;;;;;6.30;4.28;;;;;;;;;;5001232;28;20084;-57
2022/05/17 07:01:33;;;;;;;7.32;5.15;;;;;;;;;;5001595;28;20087;-58
2022/05/17 07:07:57;;;;;;;4.60;3.78;;;;;;;;;;4966526;28;20039;-58
2022/05/17 07:13:38;;;;;;;6.57;4.63;;;;;;;;;;4967855;29;20094;-59
2022/05/17 07:16:33;;;;;;;;;;;;;;;;;;;;;
2022/05/17 07:19:22;;;;;;;;;;;;;;;;;;;;;
2022/05/17 07:22:01;;;;;;;5.68;3.67;;;;;;;;;;4966097;29;20107;-58
2022/05/17 07:31:21;;;;;;;7.00;4.55;;;;;;;;;;5010399;28;20039;-58
2022/05/17 07:33:59;;;;;;;7.80;4.70;;;;;;;;;;5015374;28;21139;-59
2022/05/17 07:39:40;;;;;;;7.40;5.63;;;;;;;;;;4990336;28;20432;-59
2022/05/17 07:45:22;;;;;;;5.28;4.10;;;;;;;;;;5019241;28;20118;-59
2022/05/17 07:48:21;;;;;;;4.38;3.97;;;;;;;;;;5029998;28;20407;-59
2022/05/17 07:51:17;;;;;;;6.32;4.63;;;;;;;;;;5029639;28;20049;-59
2022/05/17 07:54:14;;;;;;;9.90;4.47;;;;;;;;;;5029364;28;20034;-59
2022/05/17 07:56:42;;;;;;;21.13;5.30;;;;;;;;;;5013786;28;20118;-59
2022/05/17 08:02:20;;;;;;;5.93;4.53;;;;;;;;;;5012323;28;20056;-58
2022/05/17 08:04:56;;;;;;;5.65;4.10;;;;;;;;;;5029473;28;20029;-57
2022/05/17 08:08:12;;;;;;;12.05;5.47;;;;;;;;;;5025542;28;20041;-58
2022/05/17 08:10:57;;;;;;;7.38;4.03;;;;;;;;;;5029490;28;20052;-58
2022/05/17 08:13:42;;;;;;;5.68;3.83;;;;;;;;;;5025091;28;20053;-58
2022/05/17 08:16:41;;;;;;;7.22;4.65;;;;;;;;;;5050663;28;20025;-58
2022/05/17 08:22:13;;;;;;;4.30;3.78;;;;;;;;;;5025838;28;20460;-58
2022/05/17 08:27:42;;;;;;;8.48;4.85;;;;;;;;;;5036720;28;20032;-58
2022/05/17 08:30:25;;;;;;;6.35;3.90;;;;;;;;;;5036946;28;20030;-58
2022/05/17 08:36:31;;;;;;;6.85;2.78;;;;;;;;;;5036208;28;20479;-58
2022/05/17 08:39:27;;;;;;;6.13;3.63;;;;;;;;;;5036502;28;20167;-58
2022/05/17 08:42:34;;;;;;;;;;;;;;;;;;;;;
2022/05/17 08:45:10;;;;;;;35.22;11.07;;;;;;;;;;5034465;28;20047;-57
2022/05/17 08:50:59;;;;;;;;;;;;;;;;;;;;;
2022/05/17 08:53:46;;;;;;;6.63;3.75;;;;;;;;;;5027954;28;20041;-58
2022/05/17 08:56:34;;;;;;;6.13;3.30;;;;;;;;;;5021542;28;20105;-58
2022/05/17 08:59:18;;;;;;;6.82;3.30;;;;;;;;;;5038189;28;20103;-58
2022/05/17 09:02:13;;;;;;;4.60;3.05;;;;;;;;;;5056722;28;20045;-58
2022/05/17 09:04:55;;;;;;;5.50;3.30;;;;;;;;;;5055804;28;20025;-58
2022/05/17 09:11:03;;;;;;;5.63;3.47;;;;;;;;;;4994008;28;20116;-58
2022/05/17 09:16:47;;;;;;;4.53;3.30;;;;;;;;;;4994689;28;20103;-58
2022/05/17 09:19:30;;;;;;;5.50;3.55;;;;;;;;;;4994890;28;20093;-58
2022/05/17 09:22:06;;;;;;;6.18;3.80;;;;;;;;;;4994109;28;20030;-58
2022/05/17 09:24:51;;;;;;;7.60;2.75;;;;;;;;;;4978610;28;20029;-58
2022/05/17 09:27:39;;;;;;;4.30;3.28;;;;;;;;;;4994532;28;20040;-58
2022/05/17 09:30:30;;;;;;;6.55;2.95;;;;;;;;;;5055502;28;20037;-58
2022/05/17 09:39:19;;;;;;;5.68;3.22;;;;;;;;;;5023909;28;20117;-58
2022/05/17 09:41:59;;;;;;;2.90;2.60;;;;;;;;;;5024407;28;20046;-58
2022/05/17 09:44:26;;;;;;;;;;;;;;;;;;5023837;28;20479;-58
2022/05/17 09:47:15;;;;;;;5.00;3.03;;;;;;;;;;5030595;28;20378;-58
2022/05/17 10:01:55;;;;;;;5.68;3.33;;;;;;;;;;5022172;28;20029;-58
2022/05/17 10:04:28;;;;;;;3.60;2.90;;;;;;;;;;5021246;28;20018;-58
2022/05/17 10:07:26;;;;;;;6.40;2.90;;;;;;;;;;5024895;28;20030;-58
2022/05/17 10:10:07;;;;;;;6.70;3.00;;;;;;;;;;5026162;28;20037;-58
2022/05/17 10:15:50;;;;;;;4.50;2.63;;;;;;;;;;5025821;28;20142;-58
2022/05/17 10:18:40;;;;;;;5.07;3.05;;;;;;;;;;5026041;28;20078;-58
2022/05/17 10:21:16;;;;;;;5.30;2.80;;;;;;;;;;5026226;28;20033;-58
2022/05/17 10:24:22;;;;;;;5.80;3.50;;;;;;;;;;5026552;28;20015;-58
2022/05/17 10:27:31;;;;;;;4.88;3.33;;;;;;;;;;5024890;28;20052;-58
2022/05/17 10:29:58;;;;;;;;;;;;;;;;;;4984225;28;20058;-58
2022/05/17 10:35:47;;;;;;;3.67;2.70;;;;;;;;;;4970668;28;20054;-58
2022/05/17 10:38:37;;;;;;;5.70;2.92;;;;;;;;;;4990339;28;20446;-58
2022/05/17 10:41:24;;;;;;;8.65;4.38;;;;;;;;;;5015145;28;20472;-59
2022/05/17 10:46:47;;;;;;;4.90;3.25;;;;;;;;;;5015019;28;20029;-58
2022/05/17 10:49:33;;;;;;;6.63;2.95;;;;;;;;;;5013151;28;20504;-58
2022/05/17 10:52:22;;;;;;;8.48;3.22;;;;;;;;;;5032078;28;20069;-58
2022/05/17 10:55:11;;;;;;;3.50;2.28;;;;;;;;;;5036505;28;20486;-58
2022/05/17 10:58:02;;;;;;;3.97;2.95;;;;;;;;;;5053640;28;20037;-58
2022/05/17 11:00:49;;;;;;;3.78;3.22;;;;;;;;;;5048255;28;20415;-58
2022/05/17 11:03:44;;;;;;;3.60;2.65;;;;;;;;;;5036109;28;20031;-58
2022/05/17 11:06:32;;;;;;;5.20;3.22;;;;;;;;;;5036489;28;20497;-58
2022/05/17 11:09:14;;;;;;;5.45;3.38;;;;;;;;;;5035863;28;20554;-58
2022/05/17 11:12:09;;;;;;;3.22;2.35;;;;;;;;;;5054837;28;20025;-58
2022/05/17 11:14:45;;;;;;;3.85;2.60;;;;;;;;;;5041805;28;20029;-58
2022/05/17 11:17:41;;;;;;;4.82;2.90;;;;;;;;;;5055126;28;20028;-58
2022/05/17 11:20:32;;;;;;;6.55;3.30;;;;;;;;;;5053912;28;20455;-58
2022/05/17 11:23:38;;;;;;;;;;;;;;;;;;;;;
2022/05/17 11:26:28;;;;;;;3.63;2.90;;;;;;;;;;5025137;28;20120;-58
2022/05/17 11:29:33;;;;;;;;;;;;;;;;;;;;;
2022/05/17 11:32:24;;;;;;;6.85;3.50;;;;;;;;;;5054594;28;20104;-58
2022/05/17 11:37:58;;;;;;;2.60;2.08;;;;;;;;;;5052745;28;19958;-58
2022/05/17 11:41:03;;;;;;;;;;;;;;;;;;;;;
2022/05/17 11:49:48;;;;;;;5.78;2.58;;;;;;;;;;5054102;28;20487;-58
2022/05/17 11:55:44;;;;;;;2.90;2.13;;;;;;;;;;5056073;28;20382;-58
2022/05/17 11:58:32;;;;;;;3.50;2.28;;;;;;;;;;5039614;28;20486;-58
2022/05/17 12:01:33;;;;;;;6.10;2.38;;;;;;;;;;5057989;28;20036;-58
2022/05/17 12:04:17;;;;;;;3.90;2.20;;;;;;;;;;5039786;28;20037;-58
2022/05/17 12:07:04;;;;;;;3.45;2.03;;;;;;;;;;5057217;28;20029;-58
2022/05/17 12:09:48;;;;;;;4.20;2.13;;;;;;;;;;5039140;28;20029;-60
2022/05/17 12:16:10;;;;;;;4.15;1.80;;;;;;;;;;5019631;28;20034;-60
2022/05/17 12:22:39;;;;;;;2.63;1.73;;;;;;;;;;4995650;28;20031;-60
2022/05/17 12:28:11;;;;;;;1.88;1.27;;;;;;;;;;5063231;28;20039;-59
2022/05/17 12:33:52;;;;;;;2.97;1.77;;;;;;;;;;5065206;28;20055;-57
2022/05/17 12:45:01;;;;;;;3.38;1.73;;;;;;;;;;5067547;28;20085;-59
2022/05/17 12:47:59;;;;;;;5.03;1.98;;;;;;;;;;5049533;28;20040;-59
2022/05/17 12:51:12;;;;;;;2.50;1.48;;;;;;;;;;5004765;28;20042;-59
2022/05/17 12:54:15;;;;;;;2.60;1.30;;;;;;;;;;4965393;29;20091;-58
2022/05/17 12:57:20;;;;;;;4.75;1.30;;;;;;;;;;4926877;29;20103;-59
2022/05/17 13:00:14;;;;;;;2.50;1.02;;;;;;;;;;4925931;29;20043;-59
2022/05/17 13:03:13;;;;;;;3.08;1.35;;;;;;;;;;4962163;29;20027;-59
2022/05/17 13:06:01;;;;;;;;;;;;;;;;;;4961427;28;20034;-59
2022/05/17 13:11:23;;;;;;;1.65;0.88;;;;;;;;;;5026048;28;20057;-58
2022/05/17 13:14:37;;;;;;;3.42;1.05;;;;;;;;;;5007432;28;20030;-59
2022/05/17 13:17:12;;;;;;;2.08;1.05;;;;;;;;;;4967387;28;20062;-59
2022/05/17 13:19:46;;;;;;;2.45;1.33;;;;;;;;;;4966243;28;20041;-58
2022/05/17 13:22:17;;;;;;;4.22;1.58;;;;;;;;;;4983476;28;20042;-58
2022/05/17 13:25:12;;;;;;;3.67;1.75;;;;;;;;;;4964606;28;20037;-59
2022/05/17 13:28:06;;;;;;;3.65;1.13;;;;;;;;;;4974163;28;20052;-59
2022/05/17 13:30:47;;;;;;;1.58;0.95;;;;;;;;;;5003085;28;20066;-59
2022/05/17 13:33:16;;;;;;;;;;;;;;;;;;4986684;28;20131;-59
2022/05/17 13:39:04;;;;;;;;;;;;;;;;;;;;;
2022/05/17 13:41:49;;;;;;;5.38;1.13;;;;;;;;;;5001219;28;20547;-58
2022/05/17 13:47:56;;;;;;;1.88;0.93;;;;;;;;;;4944182;29;20034;-59
2022/05/17 13:51:00;;;;;;;3.63;1.13;;;;;;;;;;4965558;28;20035;-58
2022/05/17 13:53:32;;;;;;;2.70;1.15;;;;;;;;;;5006996;28;20056;-58
2022/05/17 13:56:05;;;;;;;2.67;0.90;;;;;;;;;;5006093;28;20129;-58
2022/05/17 13:58:56;;;;;;;1.42;0.88;;;;;;;;;;5022826;28;20113;-58
2022/05/17 14:01:44;;;;;;;1.23;0.70;;;;;;;;;;5015757;28;20037;-58
2022/05/17 14:04:38;;;;;;;1.70;0.88;;;;;;;;;;5043291;28;20042;-58
2022/05/17 14:07:28;;;;;;;1.98;1.25;;;;;;;;;;5041362;28;20053;-58
2022/05/17 14:13:26;;;;;;;2.22;0.85;;;;;;;;;;5043394;28;20041;-58
2022/05/17 14:16:19;;;;;;;1.92;0.68;;;;;;;;;;5041573;28;20025;-58
2022/05/17 14:18:59;;;;;;;7.50;2.63;;;;;;;;;;5039949;28;20033;-58
2022/05/17 14:21:29;;;;;;;2.30;1.20;;;;;;;;;;5006816;28;20048;-58
2022/05/17 14:24:04;;;;;;;3.00;1.40;;;;;;;;;;5039230;28;20026;-58
2022/05/17 14:26:48;;;;;;;1.40;0.70;;;;;;;;;;5022520;28;20034;-58
2022/05/17 14:29:25;;;;;;;2.03;1.00;;;;;;;;;;5053592;28;20041;-58
2022/05/17 14:38:32;;;;;;;1.92;0.88;;;;;;;;;;4976936;28;20117;-58
2022/05/17 14:41:09;;;;;;;4.70;1.38;;;;;;;;;;4939019;29;20035;-61
2022/05/17 14:43:59;;;;;;;3.65;1.33;;;;;;;;;;5010216;28;20372;-58
2022/05/17 14:50:03;;;;;;;;;;;;;;;;;;;;;
2022/05/17 14:52:30;;;;;;;2.00;1.08;;;;;;;;;;4975205;28;20125;-58
2022/05/17 14:55:08;;;;;;;1.33;0.73;;;;;;;;;;5036618;28;20057;-58
2022/05/17 14:57:34;;;;;;;2.10;1.02;;;;;;;;;;5038969;28;20030;-58
2022/05/17 15:00:03;;;;;;;3.35;1.42;;;;;;;;;;5038743;28;20056;-58
2022/05/17 15:02:58;;;;;;;;;;;;;;;;;;;;;
2022/05/17 15:05:47;;;;;;;2.55;1.20;;;;;;;;;;5037483;28;20116;-58
2022/05/17 15:08:27;;;;;;;2.60;1.27;;;;;;;;;;5033668;28;20388;-58
2022/05/17 15:17:08;;;;;;;1.70;0.85;;;;;;;;;;5027700;28;20025;-58
2022/05/17 15:23:06;;;;;;;2.08;0.98;;;;;;;;;;5004184;28;20447;-58
2022/05/17 15:26:03;;;;;;;3.65;1.50;;;;;;;;;;5035119;28;20048;-58
2022/05/17 15:32:10;;;;;;;3.38;1.58;;;;;;;;;;5032169;28;20442;-59
2022/05/17 15:34:58;;;;;;;6.47;1.65;;;;;;;;;;5040725;28;20541;-58
2022/05/17 15:40:23;;;;;;;1.60;0.77;;;;;;;;;;5043802;28;20091;-59
2022/05/17 15:43:21;;;;;;;1.98;1.17;;;;;;;;;;5042659;28;20030;-59
2022/05/17 15:45:49;;;;;;;2.38;1.20;;;;;;;;;;5034733;28;20038;-59
2022/05/17 15:54:07;;;;;;;;;;;;;;;;;;;;;
2022/05/17 15:56:45;;;;;;;2.75;1.42;;;;;;;;;;5020682;28;20051;-59
2022/05/17 15:59:43;;;;;;;1.88;1.25;;;;;;;;;;5035192;28;20116;-59
2022/05/17 16:02:36;;;;;;;3.35;1.27;;;;;;;;;;5033886;28;20041;-59
2022/05/17 16:05:32;;;;;;;2.58;1.23;;;;;;;;;;5018871;28;20029;-59
2022/05/17 16:08:14;;;;;;;7.22;1.83;;;;;;;;;;5010670;28;20063;-59
2022/05/17 16:11:47;;;;;;;;;;;;;;;;;;;;;
2022/05/17 16:14:20;;;;;;;1.98;1.15;;;;;;;;;;5036946;28;20109;-59
2022/05/17 16:16:54;;;;;;;3.13;1.35;;;;;;;;;;5002186;28;20065;-59
2022/05/17 16:23:06;;;;;;;;;;;;;;;;;;;;;
2022/05/17 16:29:03;;;;;;;3.17;1.65;;;;;;;;;;5026539;28;20044;-59
2022/05/17 16:31:35;;;;;;;3.80;1.52;;;;;;;;;;5019550;28;20033;-59
2022/05/17 16:37:26;;;;;;;;;;;;;;;;;;;;;
2022/05/17 16:43:05;;;;;;;2.33;1.20;;;;;;;;;;5033218;28;20056;-59
2022/05/17 16:45:53;;;;;;;1.85;1.20;;;;;;;;;;5025627;28;20038;-59
2022/05/17 16:48:19;;;;;;;3.58;1.20;;;;;;;;;;5036759;28;20109;-59
2022/05/17 16:51:15;;;;;;;2.47;1.27;;;;;;;;;;5036525;28;20077;-59
2022/05/17 16:53:53;;;;;;;2.50;1.17;;;;;;;;;;5037536;28;20362;-59
2022/05/17 16:56:23;;;;;;;4.28;1.05;;;;;;;;;;5036010;28;20395;-59
2022/05/17 17:01:52;;;;;;;2.13;1.17;;;;;;;;;;5001989;28;20033;-59
2022/05/17 17:04:31;;;;;;;2.20;1.25;;;;;;;;;;5036545;28;20048;-59
2022/05/17 17:07:33;;;;;;;3.72;1.25;;;;;;;;;;5017913;28;20493;-59
2022/05/17 17:10:03;;;;;;;3.00;1.40;;;;;;;;;;5015309;28;20434;-59
2022/05/17 17:16:02;;;;;;;2.60;1.20;;;;;;;;;;5035859;28;20057;-59
2022/05/17 17:21:41;;;;;;;5.15;1.10;;;;;;;;;;5012294;28;20041;-59
2022/05/17 17:24:39;;;;;;;3.28;1.40;;;;;;;;;;5035371;28;20080;-59
2022/05/17 17:27:27;;;;;;;2.53;1.20;;;;;;;;;;5036129;28;20026;-59
2022/05/17 17:30:06;;;;;;;3.42;1.27;;;;;;;;;;5036063;28;20021;-59
2022/05/17 17:38:10;;;;;;;2.90;1.00;;;;;;;;;;5035443;28;20117;-59
2022/05/17 17:40:51;;;;;;;2.30;1.40;;;;;;;;;;5017304;28;20091;-59
2022/05/17 17:43:44;;;;;;;2.45;1.40;;;;;;;;;;5017834;28;20029;-59
2022/05/17 17:46:37;;;;;;;3.67;1.40;;;;;;;;;;5017077;28;20029;-59
2022/05/17 17:49:13;;;;;;;2.60;1.23;;;;;;;;;;5034472;28;20124;-59
2022/05/17 17:54:59;;;;;;;2.58;1.40;;;;;;;;;;5034237;28;20056;-59
2022/05/17 18:00:41;;;;;;;1.52;0.88;;;;;;;;;;4973811;28;20121;-59
2022/05/17 18:03:22;;;;;;;2.00;0.80;;;;;;;;;;4983922;28;20040;-59
2022/05/17 18:09:24;;;;;;;2.17;1.13;;;;;;;;;;5034669;28;20034;-59
2022/05/17 18:12:04;;;;;;;2.70;1.75;;;;;;;;;;5017603;28;20463;-59
2022/05/17 18:14:41;;;;;;;2.63;1.17;;;;;;;;;;5034942;28;20052;-60
2022/05/17 18:26:42;;;;;;;2.28;1.42;;;;;;;;;;5018605;28;20026;-59
2022/05/17 18:29:30;;;;;;;2.33;1.30;;;;;;;;;;4996371;28;20033;-59
2022/05/17 18:32:22;;;;;;;3.10;1.42;;;;;;;;;;5016903;28;20021;-59
2022/05/17 18:35:33;;;;;;;3.28;1.75;;;;;;;;;;4994830;28;20112;-59
2022/05/17 18:38:08;;;;;;;2.72;1.58;;;;;;;;;;5029950;28;20045;-59
2022/05/17 18:40:55;;;;;;;4.85;2.00;;;;;;;;;;5017096;28;20038;-59
2022/05/17 18:43:46;;;;;;;2.95;1.90;;;;;;;;;;4992884;28;20042;-58
2022/05/17 18:46:33;;;;;;;3.08;1.25;;;;;;;;;;4982190;28;20397;-59
2022/05/17 18:51:57;;;;;;;2.25;1.25;;;;;;;;;;4974402;28;20030;-60
2022/05/17 19:00:14;;;;;;;2.65;1.48;;;;;;;;;;4943796;28;20057;-58
2022/05/17 19:02:58;;;;;;;2.83;1.65;;;;;;;;;;4989560;28;20074;-59
2022/05/17 19:05:51;;;;;;;3.03;1.60;;;;;;;;;;4991829;28;20035;-59
2022/05/17 19:23:41;;;;;;;3.20;1.73;;;;;;;;;;5022559;28;20029;-59
2022/05/17 19:26:22;;;;;;;3.30;1.88;;;;;;;;;;5015479;28;20032;-59
2022/05/17 19:32:21;;;;;;;3.35;1.55;;;;;;;;;;4952834;29;20035;-59
2022/05/17 19:41:10;;;;;;;2.95;1.50;;;;;;;;;;5033376;28;20032;-59
2022/05/17 19:47:28;;;;;;;3.38;2.15;;;;;;;;;;5014035;28;20040;-59
2022/05/17 19:50:41;;;;;;;2.67;1.48;;;;;;;;;;4991408;28;20030;-59
2022/05/17 19:53:25;;;;;;;2.63;1.55;;;;;;;;;;4895968;29;20033;-59
2022/05/17 19:58:49;;;;;;;2.90;1.85;;;;;;;;;;5016992;28;20490;-59
2022/05/17 20:01:26;;;;;;;3.05;1.25;;;;;;;;;;5033667;28;20429;-59
2022/05/17 20:04:04;;;;;;;2.35;1.17;;;;;;;;;;5033454;28;20036;-59
2022/05/17 20:06:56;;;;;;;2.17;1.20;;;;;;;;;;5033955;28;20032;-59
2022/05/17 20:09:35;;;;;;;;;;;;;;;;;;;;;
2022/05/17 20:12:09;;;;;;;2.33;1.00;;;;;;;;;;5028366;28;20108;-59
2022/05/17 20:15:02;;;;;;;2.65;1.58;;;;;;;;;;5034471;28;20386;-59
2022/05/17 20:17:44;;;;;;;3.45;1.52;;;;;;;;;;5037154;28;20021;-59
2022/05/17 20:20:22;;;;;;;2.42;1.55;;;;;;;;;;5018776;28;20029;-59
2022/05/17 20:22:58;;;;;;;2.30;1.65;;;;;;;;;;5019180;28;20057;-59
2022/05/17 20:25:53;;;;;;;5.55;1.60;;;;;;;;;;5019108;28;20037;-59
2022/05/17 20:28:54;;;;;;;;;;;;;;;;;;;;;
2022/05/17 20:31:28;;;;;;;5.32;1.85;;;;;;;;;;5038268;28;20422;-59
2022/05/17 20:34:18;;;;;;;3.00;1.77;;;;;;;;;;5036857;28;20029;-59
2022/05/17 20:37:04;;;;;;;4.07;1.92;;;;;;;;;;5031134;28;20042;-59
2022/05/17 20:39:32;;;;;;;2.38;1.67;;;;;;;;;;5036833;28;20029;-59
2022/05/17 20:42:26;;;;;;;3.53;2.00;;;;;;;;;;5037521;28;20025;-59
2022/05/17 20:45:24;;;;;;;3.65;1.88;;;;;;;;;;5019107;28;20479;-59
2022/05/17 20:51:07;;;;;;;2.33;1.65;;;;;;;;;;5036861;28;20152;-59
2022/05/17 20:54:23;;;;;;;2.97;1.55;;;;;;;;;;5036752;28;20435;-59
2022/05/17 20:57:09;;;;;;;2.67;1.40;;;;;;;;;;5036439;28;20373;-59
2022/05/17 21:00:02;;;;;;;2.83;1.60;;;;;;;;;;5036238;28;20040;-59
2022/05/17 21:02:33;;;;;;;2.17;1.35;;;;;;;;;;5040625;28;20037;-59
2022/05/17 21:05:17;;;;;;;;;;;;;;;;;;5043219;28;20104;-59
2022/05/17 21:16:35;;;;;;;2.00;1.30;;;;;;;;;;5042935;28;20048;-59
2022/05/17 21:19:17;;;;;;;2.25;1.42;;;;;;;;;;5043317;28;20072;-59
2022/05/17 21:21:53;;;;;;;2.90;1.83;;;;;;;;;;5042292;28;20057;-59
2022/05/17 21:24:27;;;;;;;2.97;1.65;;;;;;;;;;5042895;28;20037;-59
2022/05/17 21:26:53;;;;;;;4.20;2.03;;;;;;;;;;5042172;28;20026;-59
2022/05/17 21:29:49;;;;;;;3.55;1.83;;;;;;;;;;5042668;28;20025;-59
2022/05/17 21:45:03;;;;;;;2.70;1.60;;;;;;;;;;4926195;29;20083;-59
2022/05/17 21:51:14;;;;;;;2.40;1.30;;;;;;;;;;5043189;28;20101;-59
2022/05/17 21:56:51;;;;;;;;;;;;;;;;;;5037361;28;20100;-59
2022/05/17 22:02:57;;;;;;;3.47;1.70;;;;;;;;;;4941802;29;20122;-59
2022/05/17 22:14:15;;;;;;;4.47;1.63;;;;;;;;;;5002751;28;20069;-59
2022/05/17 22:16:46;;;;;;;3.10;1.85;;;;;;;;;;5002249;28;20034;-59
2022/05/17 22:19:34;;;;;;;6.85;1.80;;;;;;;;;;4984600;28;20125;-59
2022/05/17 22:22:11;;;;;;;7.28;1.80;;;;;;;;;;5002243;28;20026;-59
2022/05/17 22:24:59;;;;;;;3.00;1.52;;;;;;;;;;4967915;28;20058;-59
2022/05/17 22:33:42;;;;;;;3.00;1.85;;;;;;;;;;4964027;28;20031;-59
2022/05/17 22:36:14;;;;;;;2.38;1.75;;;;;;;;;;4964292;29;20378;-59
2022/05/17 22:38:41;;;;;;;3.03;1.83;;;;;;;;;;4994487;28;20038;-59
2022/05/17 22:41:28;;;;;;;3.28;1.88;;;;;;;;;;5024569;28;20038;-59
2022/05/17 22:44:06;;;;;;;2.50;1.80;;;;;;;;;;5006792;28;20045;-59
2022/05/17 22:47:09;;;;;;;;;;;;;;;;;;;;;
2022/05/17 22:49:39;;;;;;;2.30;1.65;;;;;;;;;;4918978;28;20106;-59
2022/05/17 22:52:27;;;;;;;6.97;2.13;;;;;;;;;;4983829;28;20031;-59
2022/05/17 22:55:17;;;;;;;5.38;2.00;;;;;;;;;;4983487;28;20027;-59
2022/05/17 22:58:06;;;;;;;4.25;2.45;;;;;;;;;;4985761;28;20059;-59
2022/05/17 23:03:31;;;;;;;5.53;2.10;;;;;;;;;;4984028;28;20055;-59
2022/05/17 23:06:16;;;;;;;3.20;1.92;;;;;;;;;;4968317;28;20086;-59
2022/05/17 23:08:58;;;;;;;4.43;2.30;;;;;;;;;;4982879;28;20042;-59
2022/05/17 23:11:45;;;;;;;3.67;2.17;;;;;;;;;;4983459;28;20027;-59
2022/05/17 23:14:30;;;;;;;5.20;2.50;;;;;;;;;;4951596;28;20106;-59
2022/05/17 23:17:10;;;;;;;2.95;1.73;;;;;;;;;;4967482;28;20027;-59
2022/05/17 23:19:42;;;;;;;;;;;;;;;;;;4996021;28;20094;-59
2022/05/17 23:22:21;;;;;;;3.88;2.38;;;;;;;;;;5025117;28;19910;-59
2022/05/17 23:31:25;;;;;;;2.65;2.17;;;;;;;;;;5026080;28;20040;-59
2022/05/17 23:33:58;;;;;;;4.38;2.25;;;;;;;;;;5008579;28;20479;-59
2022/05/17 23:36:47;;;;;;;4.90;2.50;;;;;;;;;;5025924;28;20028;-59